createdAt,value
2019-03-21T00:01:38.794Z,49.50
2019-03-21T00:11:58.774Z,49.20
2019-03-21T00:22:04.442Z,49.10
2019-03-21T00:32:10.291Z,49.10
2019-03-21T00:42:16.160Z,49.40
2019-03-21T00:52:22.002Z,49.60
2019-03-21T01:02:27.835Z,49.60
2019-03-21T01:12:33.922Z,49.60
2019-03-21T01:22:39.529Z,50.40
2019-03-21T01:32:45.150Z,49.70
2019-03-21T01:42:50.759Z,49.70
2019-03-21T01:52:56.638Z,49.90
2019-03-21T02:03:02.480Z,50.00
2019-03-21T02:13:08.073Z,50.20
2019-03-21T02:23:13.670Z,50.30
2019-03-21T02:33:22.494Z,50.30
2019-03-21T02:43:28.109Z,50.50
2019-03-21T02:53:33.731Z,50.60
2019-03-21T03:03:39.311Z,50.90
2019-03-21T03:13:46.640Z,51.60
2019-03-21T03:23:52.471Z,52.30
2019-03-21T03:33:58.316Z,52.70
2019-03-21T03:44:03.973Z,52.70
2019-03-21T03:54:10.656Z,52.60
2019-03-21T04:04:16.265Z,52.80
2019-03-21T04:14:21.857Z,53.00
2019-03-21T04:24:27.809Z,53.20
2019-03-21T04:34:33.415Z,53.60
2019-03-21T04:44:39.002Z,53.70
2019-03-21T04:54:44.663Z,53.60
2019-03-21T05:04:50.235Z,53.50
2019-03-21T05:14:55.856Z,53.40
2019-03-21T05:25:01.760Z,53.60
2019-03-21T05:35:07.729Z,53.80
2019-03-21T05:45:13.908Z,53.70
2019-03-21T05:55:19.524Z,53.60
2019-03-21T06:05:25.302Z,53.60
2019-03-21T06:15:31.977Z,53.60
2019-03-21T06:26:03.808Z,53.50
2019-03-21T06:36:09.434Z,53.90
2019-03-21T06:46:15.375Z,53.60
2019-03-21T06:56:21.031Z,53.50
2019-03-21T07:06:26.629Z,53.30
2019-03-21T07:16:32.320Z,53.00
2019-03-21T07:26:37.952Z,53.00
2019-03-21T07:36:43.835Z,52.70
2019-03-21T07:46:49.522Z,52.50
2019-03-21T07:56:55.239Z,52.20
2019-03-21T08:07:00.948Z,52.20
2019-03-21T08:17:06.542Z,51.70
2019-03-21T08:27:12.639Z,51.50
2019-03-21T08:37:18.373Z,51.40
2019-03-21T08:47:24.166Z,51.00
2019-03-21T08:57:30.003Z,50.80
2019-03-21T09:07:35.611Z,50.60
2019-03-21T09:17:41.807Z,50.50
2019-03-21T09:27:47.648Z,50.20
2019-03-21T09:37:53.246Z,50.00
2019-03-21T09:47:59.227Z,49.80
2019-03-21T09:58:05.278Z,49.60
2019-03-21T10:08:10.950Z,49.50
2019-03-21T10:18:16.678Z,49.20
2019-03-21T10:28:22.819Z,48.60
2019-03-21T10:38:28.471Z,47.70
2019-03-21T10:48:34.422Z,46.50
2019-03-21T10:58:40.092Z,43.50
2019-03-21T11:08:46.417Z,40.70
2019-03-21T11:18:52.106Z,38.30
2019-03-21T11:28:57.718Z,36.10
2019-03-21T11:39:04.991Z,33.60
2019-03-21T11:49:10.896Z,31.90
2019-03-21T11:59:16.494Z,30.90
2019-03-21T12:09:22.604Z,29.50
2019-03-21T12:19:28.430Z,29.50
2019-03-21T12:29:34.430Z,27.50
2019-03-21T12:39:40.135Z,26.70
2019-03-21T12:49:46.114Z,26.50
2019-03-21T12:59:51.854Z,25.30
2019-03-21T13:09:57.580Z,24.50
2019-03-21T13:20:03.940Z,24.00
2019-03-21T13:30:09.840Z,23.40
2019-03-21T13:40:15.642Z,23.30
2019-03-21T13:50:21.309Z,23.80
2019-03-21T14:00:27.331Z,22.60
2019-03-21T14:10:32.955Z,22.30
2019-03-21T14:20:38.689Z,22.00
2019-03-21T14:30:44.315Z,22.00
2019-03-21T14:40:50.263Z,21.90
2019-03-21T14:50:56.148Z,21.00
2019-03-21T15:01:01.846Z,20.20
2019-03-21T15:11:16.575Z,19.00
2019-03-21T15:21:14.814Z,16.60
2019-03-21T15:31:20.432Z,14.90
2019-03-21T15:41:26.538Z,14.70
2019-03-21T15:51:31.434Z,17.50
2019-03-21T16:01:37.164Z,21.50
2019-03-21T16:11:43.263Z,18.10
2019-03-21T16:21:48.938Z,17.70
2019-03-21T16:31:54.783Z,22.50
2019-03-21T16:42:00.415Z,25.70
2019-03-21T16:52:06.273Z,27.20
2019-03-21T17:02:11.966Z,28.70
2019-03-21T17:12:17.921Z,29.80
2019-03-21T17:22:24.217Z,31.00
2019-03-21T17:32:30.239Z,32.60
2019-03-21T17:42:35.966Z,34.40
2019-03-21T17:52:41.638Z,35.30
2019-03-21T18:02:47.942Z,37.00
2019-03-21T18:12:53.755Z,38.40
2019-03-21T18:23:00.114Z,40.70
2019-03-21T18:33:05.735Z,42.00
2019-03-21T18:43:11.733Z,43.10
2019-03-21T18:53:17.428Z,43.70
2019-03-21T19:03:23.118Z,44.30
2019-03-21T19:13:29.487Z,45.70
2019-03-21T19:23:35.196Z,47.00
2019-03-21T19:33:41.167Z,47.00
2019-03-21T19:43:46.903Z,47.50
2019-03-21T19:53:52.616Z,47.80
2019-03-21T20:03:58.594Z,47.90
2019-03-21T20:14:04.575Z,48.30
2019-03-21T20:24:10.686Z,48.90
2019-03-21T20:34:16.578Z,49.00
2019-03-21T20:44:22.577Z,49.20
2019-03-21T20:54:29.239Z,49.10
2019-03-21T21:04:35.317Z,50.30
2019-03-21T21:14:40.927Z,50.40
2019-03-21T21:24:46.552Z,50.80
2019-03-21T21:34:54.442Z,51.20
2019-03-21T21:44:59.569Z,51.50
2019-03-21T21:55:05.973Z,50.90
2019-03-21T22:05:11.855Z,51.70
2019-03-21T22:15:17.559Z,51.60
2019-03-21T22:25:23.421Z,53.90
2019-03-21T22:35:29.139Z,53.80
2019-03-21T22:45:34.905Z,53.60
2019-03-21T22:55:41.096Z,53.40
2019-03-21T23:05:47.036Z,53.80
2019-03-21T23:15:52.652Z,54.10
2019-03-21T23:25:58.259Z,54.00
2019-03-21T23:36:04.538Z,54.10
2019-03-21T23:46:10.703Z,54.10
2019-03-21T23:56:16.394Z,54.60
